Time;durP1;ratioP1;P1;durP2;ratioP2;P2;SDS_P1;SDS_P2;PMS_P1;PMS_P2;Temp;Humidity;BMP_temperature;BMP_pressure;BME280_temperature;BME280_humidity;BME280_pressure;Samples;Min_cycle;Max_cycle;Signal;HPM_P1;HPM_P2
2022/07/24 00:02:06;;;;;;;63.90;54.38;;;25.40;58.50;;;;;;4992609;27;96909;-69
2022/07/24 00:04:32;;;;;;;64.07;53.85;;;25.40;58.60;;;;;;4999219;27;96499;-69
2022/07/24 00:06:57;;;;;;;64.80;54.38;;;25.40;58.60;;;;;;5003819;27;96035;-68
2022/07/24 00:09:23;;;;;;;64.07;54.00;;;25.40;58.60;;;;;;4991865;27;98807;-69
2022/07/24 00:11:49;;;;;;;63.95;54.03;;;25.40;58.60;;;;;;5009400;27;95082;-69
2022/07/24 00:14:15;;;;;;;64.13;53.97;;;25.30;58.50;;;;;;4989324;27;95121;-68
2022/07/24 00:16:40;;;;;;;64.47;53.88;;;25.40;58.60;;;;;;4997866;27;97785;-69
2022/07/24 00:19:06;;;;;;;63.83;54.03;;;25.40;58.60;;;;;;4995512;27;98962;-69
2022/07/24 00:21:32;;;;;;;63.80;54.30;;;25.40;58.60;;;;;;4988126;27;97985;-68
2022/07/24 00:23:58;;;;;;;64.72;54.65;;;25.30;58.50;;;;;;4997847;27;96422;-68
2022/07/24 00:26:24;;;;;;;64.13;54.42;;;25.30;58.60;;;;;;4977820;27;96741;-69
2022/07/24 00:28:49;;;;;;;64.30;54.10;;;25.30;58.60;;;;;;4998164;27;94664;-68
2022/07/24 00:31:16;;;;;;;64.90;54.50;;;25.30;58.60;;;;;;4992783;27;95197;-67
2022/07/24 00:33:41;;;;;;;64.43;53.97;;;25.30;58.60;;;;;;4998578;27;95253;-68
2022/07/24 00:36:07;;;;;;;64.22;53.88;;;25.30;58.60;;;;;;5000237;27;98384;-69
2022/07/24 00:38:33;;;;;;;63.92;54.17;;;25.30;58.60;;;;;;4975371;27;95858;-69
2022/07/24 00:40:58;;;;;;;63.85;53.90;;;25.30;58.70;;;;;;5009404;27;99147;-68
2022/07/24 00:43:24;;;;;;;63.53;53.55;;;25.20;58.60;;;;;;4992599;27;94952;-68
2022/07/24 00:45:50;;;;;;;64.43;54.13;;;25.30;58.60;;;;;;4999804;27;95418;-68
2022/07/24 00:48:16;;;;;;;63.85;54.28;;;25.30;58.60;;;;;;4999753;27;96345;-68
2022/07/24 00:50:43;;;;;;;64.07;53.80;;;25.20;58.60;;;;;;5003889;27;101830;-68
2022/07/24 00:53:09;;;;;;;64.82;53.95;;;25.20;58.60;;;;;;4995121;27;96196;-69
2022/07/24 00:55:35;;;;;;;64.63;53.47;;;25.20;58.60;;;;;;4995424;27;95562;-68
2022/07/24 00:58:01;;;;;;;63.10;53.90;;;25.20;58.70;;;;;;4992684;27;95549;-69
2022/07/24 01:00:27;;;;;;;63.45;54.00;;;25.20;58.90;;;;;;4995643;27;96761;-68
2022/07/24 01:02:52;;;;;;;64.15;53.78;;;25.20;58.80;;;;;;4989017;27;95886;-69
2022/07/24 01:05:19;;;;;;;64.45;53.70;;;25.20;58.70;;;;;;4994528;27;97503;-68
2022/07/24 01:07:46;;;;;;;63.25;53.97;;;25.20;58.80;;;;;;5010365;27;95443;-69
2022/07/24 01:10:11;;;;;;;63.28;53.63;;;25.20;58.70;;;;;;5004559;27;96042;-69
2022/07/24 01:12:38;;;;;;;63.60;53.67;;;25.20;58.70;;;;;;4980173;27;101096;-68
2022/07/24 01:15:07;;;;;;;63.38;54.22;;;25.20;58.70;;;;;;4977251;27;101923;-69
2022/07/24 01:17:34;;;;;;;63.42;53.85;;;25.20;58.70;;;;;;4999015;27;96973;-69
2022/07/24 01:20:00;;;;;;;63.05;53.70;;;25.20;58.70;;;;;;4996874;27;100769;-68
2022/07/24 01:22:27;;;;;;;63.80;53.53;;;25.20;58.70;;;;;;4999311;27;100864;-68
2022/07/24 01:24:54;;;;;;;63.75;53.75;;;25.20;58.70;;;;;;5000424;27;94897;-68
2022/07/24 01:27:24;;;;;;;64.07;53.42;;;25.20;58.80;;;;;;4996093;27;95116;-68
2022/07/24 01:29:51;;;;;;;63.90;53.83;;;25.10;58.70;;;;;;5001113;27;96217;-68
2022/07/24 01:32:16;;;;;;;63.92;53.65;;;25.10;58.70;;;;;;4985396;27;96764;-69
2022/07/24 01:34:42;;;;;;;62.75;53.47;;;25.10;58.70;;;;;;5000696;27;95801;-68
2022/07/24 01:37:08;;;;;;;63.33;53.63;;;25.10;58.70;;;;;;4996614;27;98756;-68
2022/07/24 01:39:33;;;;;;;63.67;53.88;;;25.10;59.40;;;;;;4999781;27;95919;-68
2022/07/24 01:41:59;;;;;;;63.65;53.72;;;25.10;58.70;;;;;;4982258;27;96096;-68
2022/07/24 01:44:25;;;;;;;62.75;53.63;;;25.10;58.80;;;;;;4985151;27;95453;-68
2022/07/24 01:46:50;;;;;;;62.80;53.58;;;25.10;58.80;;;;;;5004890;27;94987;-69
2022/07/24 01:49:16;;;;;;;63.33;53.47;;;25.10;58.70;;;;;;4992717;27;97353;-69
2022/07/24 01:51:41;;;;;;;62.97;53.22;;;25.10;58.80;;;;;;4981902;27;97304;-68
2022/07/24 01:54:07;;;;;;;62.88;53.33;;;25.10;58.70;;;;;;5005369;27;96075;-69
2022/07/24 01:56:33;;;;;;;63.13;53.65;;;25.10;58.70;;;;;;4992623;27;94402;-68
2022/07/24 01:58:59;;;;;;;63.47;53.72;;;25.00;58.70;;;;;;4996012;27;97048;-69
2022/07/24 02:01:29;;;;;;;62.85;53.20;;;25.10;58.80;;;;;;4990632;27;95038;-68
2022/07/24 02:03:54;;;;;;;62.95;53.25;;;25.00;59.40;;;;;;5000596;27;95767;-68
2022/07/24 02:06:20;;;;;;;63.88;53.85;;;25.00;58.80;;;;;;5004367;27;95854;-68
2022/07/24 02:08:45;;;;;;;63.17;53.22;;;25.00;58.80;;;;;;4995032;27;95317;-68
2022/07/24 02:11:11;;;;;;;62.90;53.25;;;25.00;58.80;;;;;;5016256;27;97090;-68
2022/07/24 02:13:37;;;;;;;62.58;53.25;;;25.00;58.90;;;;;;5001504;27;101983;-68
2022/07/24 02:16:04;;;;;;;64.63;53.67;;;25.00;58.80;;;;;;4993723;27;97180;-68
2022/07/24 02:18:29;;;;;;;62.63;53.53;;;25.00;58.90;;;;;;5002753;27;96249;-68
2022/07/24 02:20:55;;;;;;;63.03;53.42;;;25.00;59.00;;;;;;5001114;27;94892;-68
2022/07/24 02:23:21;;;;;;;62.55;53.63;;;25.00;59.00;;;;;;4986403;27;100709;-68
2022/07/24 02:25:48;;;;;;;63.03;52.95;;;25.00;59.00;;;;;;4986763;27;95193;-68
2022/07/24 02:28:14;;;;;;;62.75;53.33;;;25.00;59.00;;;;;;4999540;27;97592;-69
2022/07/24 02:30:40;;;;;;;62.92;53.55;;;24.90;59.00;;;;;;5004815;27;97097;-69
2022/07/24 02:33:06;;;;;;;62.45;53.20;;;25.00;59.00;;;;;;4999505;27;95738;-69
2022/07/24 02:35:32;;;;;;;63.55;53.42;;;24.90;58.90;;;;;;4995827;27;96959;-68
2022/07/24 02:37:57;;;;;;;62.55;52.97;;;25.00;59.00;;;;;;4996630;27;99079;-68
2022/07/24 02:40:23;;;;;;;62.15;52.72;;;24.90;59.10;;;;;;4977679;27;105256;-68
2022/07/24 02:42:49;;;;;;;62.70;53.13;;;24.90;59.10;;;;;;4999697;27;95222;-68
2022/07/24 02:45:14;;;;;;;62.85;53.80;;;24.90;59.10;;;;;;4997450;27;93997;-69
2022/07/24 02:47:54;;;;;;;62.65;53.30;;;24.90;59.10;;;;;;5003002;27;97424;-69
2022/07/24 02:50:22;;;;;;;63.97;53.42;;;24.90;59.10;;;;;;4993417;27;95419;-68
2022/07/24 02:52:48;;;;;;;63.58;53.35;;;24.80;59.10;;;;;;4976890;27;99514;-68
2022/07/24 02:55:14;;;;;;;61.85;52.92;;;24.90;59.10;;;;;;4989934;27;95937;-68
2022/07/24 02:57:40;;;;;;;63.53;53.25;;;24.80;59.10;;;;;;5010355;27;95746;-69
2022/07/24 03:00:12;;;;;;;62.13;53.17;;;24.90;59.20;;;;;;4975742;27;97893;-68
2022/07/24 03:02:38;;;;;;;62.45;52.85;;;24.80;59.10;;;;;;4984331;27;98057;-68
2022/07/24 03:05:04;;;;;;;62.30;53.22;;;24.80;59.20;;;;;;5003109;27;95006;-69
2022/07/24 03:07:30;;;;;;;62.83;53.15;;;24.80;59.10;;;;;;5004881;27;94753;-69
2022/07/24 03:09:56;;;;;;;62.20;53.10;;;24.80;59.10;;;;;;4998149;27;94444;-68
2022/07/24 03:12:22;;;;;;;63.47;53.35;;;24.80;59.10;;;;;;4997361;27;97554;-68
2022/07/24 03:14:48;;;;;;;63.67;53.50;;;24.80;59.10;;;;;;5009591;27;95187;-68
2022/07/24 03:17:13;;;;;;;62.97;53.35;;;24.80;59.20;;;;;;5010210;27;98678;-68
2022/07/24 03:19:39;;;;;;;62.70;53.35;;;24.80;59.10;;;;;;5001008;27;100655;-68
2022/07/24 03:22:04;;;;;;;61.58;53.03;;;24.80;59.20;;;;;;4986828;27;98911;-69
2022/07/24 03:24:30;;;;;;;63.03;53.13;;;24.70;59.20;;;;;;4991858;27;95639;-68
2022/07/24 03:26:56;;;;;;;62.97;53.10;;;24.70;59.20;;;;;;4995776;27;95272;-68
2022/07/24 03:29:21;;;;;;;62.05;52.95;;;24.70;59.20;;;;;;4997285;27;99109;-68
2022/07/24 03:31:47;;;;;;;62.53;53.03;;;24.70;59.30;;;;;;5000472;27;95402;-68
2022/07/24 03:34:13;;;;;;;63.25;53.13;;;24.70;59.30;;;;;;5009946;27;94166;-68
2022/07/24 03:36:38;;;;;;;62.72;53.20;;;24.70;59.30;;;;;;4998711;27;96101;-68
2022/07/24 03:39:05;;;;;;;63.53;53.15;;;24.70;59.30;;;;;;5001463;27;96419;-69
2022/07/24 03:41:30;;;;;;;61.97;52.72;;;24.70;59.30;;;;;;4997988;27;97019;-68
2022/07/24 03:43:56;;;;;;;62.13;53.10;;;24.70;59.30;;;;;;5003863;27;100955;-69
2022/07/24 03:46:22;;;;;;;62.10;52.75;;;24.70;59.30;;;;;;5008282;27;97030;-69
2022/07/24 03:48:47;;;;;;;62.60;52.42;;;24.70;59.30;;;;;;4993385;27;95314;-68
2022/07/24 03:51:13;;;;;;;62.45;52.85;;;24.70;59.40;;;;;;4995548;27;95878;-68
2022/07/24 03:53:39;;;;;;;61.28;52.42;;;24.60;59.30;;;;;;4998138;27;94841;-69
2022/07/24 03:56:06;;;;;;;62.88;53.28;;;24.60;59.30;;;;;;5003022;27;96943;-68
2022/07/24 03:58:32;;;;;;;62.15;52.67;;;24.60;59.30;;;;;;5007396;27;94657;-69
2022/07/24 04:00:58;;;;;;;62.65;53.05;;;24.60;59.40;;;;;;4995365;27;95603;-68
2022/07/24 04:03:23;;;;;;;61.80;52.50;;;24.60;59.30;;;;;;5011503;27;95178;-68
2022/07/24 04:05:49;;;;;;;62.28;52.53;;;24.60;59.30;;;;;;5002064;27;98013;-68
2022/07/24 04:08:15;;;;;;;61.85;52.67;;;24.60;59.30;;;;;;4996997;27;95980;-68
2022/07/24 04:10:41;;;;;;;62.15;52.75;;;24.60;59.30;;;;;;4998827;27;94836;-68
2022/07/24 04:13:06;;;;;;;61.90;52.88;;;24.50;59.30;;;;;;5009470;27;97594;-68
2022/07/24 04:15:32;;;;;;;62.80;52.83;;;24.60;59.40;;;;;;5000048;27;95234;-68
2022/07/24 04:17:58;;;;;;;61.72;52.83;;;24.50;59.40;;;;;;4979843;27;97121;-68
2022/07/24 04:20:23;;;;;;;62.67;52.67;;;24.50;59.40;;;;;;5005373;27;95994;-68
2022/07/24 04:22:49;;;;;;;61.97;52.42;;;24.50;59.40;;;;;;4999973;27;94092;-69
2022/07/24 04:25:14;;;;;;;62.45;52.85;;;24.50;59.40;;;;;;4993850;27;95636;-68
2022/07/24 04:27:40;;;;;;;61.00;52.30;;;24.50;59.40;;;;;;4981136;28;96774;-68
2022/07/24 04:30:06;;;;;;;63.35;52.95;;;24.50;59.50;;;;;;4990708;27;97775;-70
2022/07/24 04:32:32;;;;;;;62.22;52.83;;;24.50;59.50;;;;;;4998784;27;98036;-68
2022/07/24 04:34:58;;;;;;;62.88;53.00;;;24.50;59.40;;;;;;4991491;27;100906;-68
2022/07/24 04:37:23;;;;;;;61.85;52.88;;;24.50;59.40;;;;;;4988201;27;98121;-69
2022/07/24 04:39:49;;;;;;;61.15;52.47;;;24.50;59.40;;;;;;5003207;27;96962;-68
2022/07/24 04:42:15;;;;;;;61.45;52.55;;;24.50;59.50;;;;;;4993867;27;95377;-69
2022/07/24 04:44:40;;;;;;;61.85;52.83;;;24.50;59.50;;;;;;5002153;27;96260;-68
2022/07/24 04:47:06;;;;;;;63.85;52.47;;;24.50;59.50;;;;;;5002182;27;94710;-69
2022/07/24 04:49:32;;;;;;;61.92;53.00;;;24.50;59.50;;;;;;5001842;27;95198;-68
2022/07/24 04:51:57;;;;;;;62.72;53.35;;;24.50;59.50;;;;;;4991199;27;95273;-69
2022/07/24 04:54:23;;;;;;;61.70;52.90;;;24.50;59.60;;;;;;4999723;27;96693;-68
2022/07/24 04:56:48;;;;;;;61.83;53.08;;;24.40;59.50;;;;;;5003403;27;96945;-68
2022/07/24 04:59:14;;;;;;;62.10;52.75;;;24.40;59.60;;;;;;5014776;27;96466;-68
2022/07/24 05:01:40;;;;;;;61.60;52.83;;;24.40;59.70;;;;;;4980237;28;98770;-68
2022/07/24 05:04:06;;;;;;;61.72;52.55;;;24.40;59.70;;;;;;4991360;27;95794;-69
2022/07/24 05:06:31;;;;;;;62.25;52.55;;;24.40;59.60;;;;;;4982169;27;95785;-68
2022/07/24 05:08:57;;;;;;;64.32;53.03;;;24.40;59.70;;;;;;5013936;27;96302;-68
2022/07/24 05:11:23;;;;;;;62.45;53.17;;;24.40;59.50;;;;;;4991223;27;95257;-68
2022/07/24 05:13:49;;;;;;;62.70;53.13;;;24.40;59.50;;;;;;4995118;27;101795;-68
2022/07/24 05:16:14;;;;;;;61.95;52.88;;;24.40;59.50;;;;;;4997687;27;95967;-69
2022/07/24 05:18:40;;;;;;;61.85;52.63;;;24.40;59.50;;;;;;4992072;27;101201;-69
2022/07/24 05:21:07;;;;;;;61.90;53.05;;;24.40;59.50;;;;;;4991885;27;95500;-68
2022/07/24 05:23:33;;;;;;;61.10;52.58;;;24.40;59.40;;;;;;4996829;27;101621;-68
2022/07/24 05:25:58;;;;;;;61.00;52.50;;;24.50;59.40;;;;;;4987474;27;95236;-69
2022/07/24 05:28:24;;;;;;;61.88;52.88;;;24.40;59.30;;;;;;4976249;27;100204;-68
2022/07/24 05:30:50;;;;;;;61.80;52.60;;;24.40;59.30;;;;;;4999265;27;95633;-68
2022/07/24 05:33:15;;;;;;;61.30;52.83;;;24.40;59.30;;;;;;4979871;27;97757;-68
2022/07/24 05:35:41;;;;;;;61.47;52.90;;;24.40;59.20;;;;;;5017248;27;94566;-68
2022/07/24 05:38:07;;;;;;;61.78;52.78;;;24.50;59.20;;;;;;4988368;27;94970;-69
2022/07/24 05:40:32;;;;;;;61.53;52.67;;;24.50;59.20;;;;;;4992345;27;98671;-68
2022/07/24 05:42:58;;;;;;;61.60;52.65;;;24.50;59.10;;;;;;5001061;27;96489;-68
2022/07/24 05:45:23;;;;;;;61.50;52.50;;;24.50;59.10;;;;;;5009853;27;95201;-69
2022/07/24 05:47:49;;;;;;;61.03;52.35;;;24.50;59.00;;;;;;4993165;27;96459;-68
2022/07/24 05:50:15;;;;;;;62.25;52.63;;;24.50;59.00;;;;;;5011474;27;95124;-68
2022/07/24 05:52:41;;;;;;;61.65;52.47;;;24.50;58.90;;;;;;5004292;27;95335;-69
2022/07/24 05:55:08;;;;;;;61.38;52.28;;;24.50;58.90;;;;;;5008316;27;99194;-68
2022/07/24 05:57:33;;;;;;;61.75;52.22;;;24.50;58.90;;;;;;4991317;27;96556;-69
2022/07/24 05:59:59;;;;;;;61.95;52.22;;;24.50;58.90;;;;;;5003709;27;95445;-69
2022/07/24 06:02:25;;;;;;;61.10;52.35;;;24.50;58.80;;;;;;5009609;27;95513;-68
2022/07/24 06:04:51;;;;;;;61.30;52.15;;;24.50;58.90;;;;;;5005180;27;95148;-68
2022/07/24 06:07:17;;;;;;;61.40;52.38;;;24.50;58.70;;;;;;4997560;27;97139;-69
2022/07/24 06:09:42;;;;;;;61.35;52.38;;;24.50;58.70;;;;;;5006694;27;95223;-68
2022/07/24 06:12:08;;;;;;;61.20;52.10;;;24.50;58.70;;;;;;5009818;27;95018;-69
2022/07/24 06:14:34;;;;;;;61.10;52.35;;;24.50;58.70;;;;;;5001719;27;95078;-69
2022/07/24 06:17:00;;;;;;;61.92;52.10;;;24.50;58.70;;;;;;5003305;27;95186;-69
2022/07/24 06:19:26;;;;;;;61.55;51.67;;;24.50;58.60;;;;;;5007448;27;95587;-69
2022/07/24 06:21:51;;;;;;;60.28;51.35;;;24.60;58.70;;;;;;5003199;27;97022;-68
2022/07/24 06:24:17;;;;;;;61.33;51.97;;;24.60;58.60;;;;;;4997945;27;94714;-68
2022/07/24 06:26:43;;;;;;;60.85;51.60;;;24.60;58.60;;;;;;5009558;27;96585;-69
2022/07/24 06:29:08;;;;;;;60.78;51.97;;;24.60;58.70;;;;;;5007911;27;94956;-69
2022/07/24 06:31:34;;;;;;;61.13;52.05;;;24.60;58.70;;;;;;4999610;27;96024;-68
2022/07/24 06:34:00;;;;;;;60.75;51.85;;;24.60;58.60;;;;;;4984794;27;96440;-69
2022/07/24 06:36:25;;;;;;;61.15;51.85;;;24.60;58.60;;;;;;4998053;27;95790;-69
2022/07/24 06:38:51;;;;;;;61.67;52.33;;;24.70;58.60;;;;;;5000826;27;94818;-69
2022/07/24 06:41:17;;;;;;;61.33;51.97;;;24.70;58.50;;;;;;5001232;27;98265;-69
2022/07/24 06:43:43;;;;;;;61.00;51.88;;;24.60;58.50;;;;;;5004051;27;97707;-69
2022/07/24 06:46:08;;;;;;;61.47;51.72;;;24.70;58.60;;;;;;4996333;27;95031;-68
2022/07/24 06:48:34;;;;;;;60.72;51.95;;;24.60;58.50;;;;;;4990048;27;98811;-69
2022/07/24 06:50:59;;;;;;;60.78;52.00;;;24.70;58.60;;;;;;5004669;27;101465;-68
2022/07/24 06:53:25;;;;;;;60.55;51.80;;;24.60;58.50;;;;;;4987150;27;95561;-68
2022/07/24 06:55:53;;;;;;;60.88;51.90;;;24.60;58.60;;;;;;4997785;27;96828;-68
2022/07/24 06:58:19;;;;;;;61.47;52.30;;;24.70;58.60;;;;;;4994499;27;95927;-69
2022/07/24 07:00:46;;;;;;;61.15;52.17;;;24.70;58.50;;;;;;5004119;27;96345;-69
2022/07/24 07:03:11;;;;;;;60.95;51.92;;;24.70;58.60;;;;;;4998806;27;97020;-69
2022/07/24 07:05:37;;;;;;;60.85;51.85;;;24.70;58.60;;;;;;5013348;27;95445;-69
2022/07/24 07:08:03;;;;;;;61.05;51.88;;;24.70;58.50;;;;;;4988528;27;106776;-68
2022/07/24 07:10:28;;;;;;;60.65;51.70;;;24.70;58.50;;;;;;4990681;27;99847;-69
2022/07/24 07:12:54;;;;;;;60.72;51.78;;;24.70;58.50;;;;;;4996638;27;95160;-69
2022/07/24 07:15:20;;;;;;;61.55;52.05;;;24.70;58.50;;;;;;4987939;27;96802;-68
2022/07/24 07:17:45;;;;;;;61.67;51.97;;;24.70;58.50;;;;;;4979818;28;95536;-69
2022/07/24 07:20:13;;;;;;;62.10;52.28;;;24.80;58.40;;;;;;4987791;27;102497;-68
2022/07/24 07:22:39;;;;;;;61.42;52.20;;;24.70;58.40;;;;;;4973338;27;96825;-69
2022/07/24 07:25:06;;;;;;;61.55;51.88;;;24.70;58.50;;;;;;5004476;27;95233;-69
2022/07/24 07:27:32;;;;;;;61.53;52.13;;;24.80;58.60;;;;;;4994073;27;95466;-68
2022/07/24 07:29:57;;;;;;;61.00;51.85;;;24.80;58.50;;;;;;4994355;27;95259;-69
2022/07/24 07:32:23;;;;;;;62.70;52.13;;;24.80;59.00;;;;;;4998373;27;97214;-69
2022/07/24 07:34:49;;;;;;;61.65;52.10;;;24.80;58.40;;;;;;4982372;27;95512;-69
2022/07/24 07:37:14;;;;;;;62.70;52.40;;;24.80;58.40;;;;;;4998542;27;94218;-69
2022/07/24 07:39:40;;;;;;;61.60;52.17;;;24.80;58.30;;;;;;5000640;27;96791;-71
2022/07/24 07:42:06;;;;;;;61.33;51.80;;;24.80;58.50;;;;;;5001061;27;97043;-68
2022/07/24 07:44:31;;;;;;;61.53;52.05;;;24.90;58.20;;;;;;5001171;27;96362;-69
2022/07/24 07:46:57;;;;;;;61.42;51.92;;;24.80;58.30;;;;;;4993962;27;100342;-69
2022/07/24 07:49:23;;;;;;;61.50;52.33;;;24.80;58.50;;;;;;4997227;27;96362;-68
2022/07/24 07:51:51;;;;;;;62.40;52.58;;;24.80;58.50;;;;;;5008431;27;95141;-69
2022/07/24 07:54:17;;;;;;;61.88;51.97;;;24.80;58.50;;;;;;4986487;27;96541;-69
2022/07/24 07:56:43;;;;;;;61.53;52.13;;;24.80;58.50;;;;;;5004388;27;98372;-69
2022/07/24 07:59:09;;;;;;;63.30;52.35;;;24.80;58.50;;;;;;4999726;27;96421;-68
2022/07/24 08:01:35;;;;;;;61.80;52.13;;;24.80;58.40;;;;;;4996175;27;95602;-69
2022/07/24 08:04:01;;;;;;;62.72;52.38;;;24.80;58.50;;;;;;4994908;27;96657;-69
2022/07/24 08:06:27;;;;;;;61.65;52.05;;;24.80;58.40;;;;;;4982715;27;94774;-68
2022/07/24 08:08:53;;;;;;;62.10;52.28;;;24.80;58.40;;;;;;5004988;27;96298;-69
2022/07/24 08:11:18;;;;;;;61.72;52.30;;;24.80;58.40;;;;;;4988707;27;98739;-69
2022/07/24 08:13:45;;;;;;;62.10;52.53;;;24.80;58.50;;;;;;4988042;27;96078;-69
2022/07/24 08:16:11;;;;;;;62.78;52.72;;;24.80;58.40;;;;;;4999350;27;95576;-68
2022/07/24 08:18:36;;;;;;;64.47;53.08;;;24.80;58.40;;;;;;4999702;27;97454;-68
2022/07/24 08:21:02;;;;;;;63.17;52.45;;;25.00;56.60;;;;;;4991906;27;95960;-68
2022/07/24 08:23:28;;;;;;;63.95;52.55;;;24.90;57.30;;;;;;4982578;27;95439;-68
2022/07/24 08:25:53;;;;;;;63.15;52.45;;;24.90;57.70;;;;;;4994520;27;102601;-68
2022/07/24 08:28:21;;;;;;;64.18;52.60;;;24.90;57.80;;;;;;4972207;27;101033;-68
2022/07/24 08:30:47;;;;;;;64.32;52.75;;;24.80;57.10;;;;;;4984494;27;95981;-68
2022/07/24 08:33:12;;;;;;;67.82;52.72;;;24.80;57.60;;;;;;4988531;27;96763;-69
2022/07/24 08:35:38;;;;;;;63.88;52.65;;;24.90;57.40;;;;;;5005111;27;95747;-69
2022/07/24 08:38:05;;;;;;;66.63;52.95;;;24.90;57.60;;;;;;5006453;27;96126;-69
2022/07/24 08:40:39;;;;;;;66.45;52.70;;;25.00;56.40;;;;;;4997226;27;98658;-69
2022/07/24 08:43:06;;;;;;;64.35;52.53;;;24.90;56.40;;;;;;4980039;27;95084;-69
2022/07/24 08:45:40;;;;;;;63.47;52.72;;;25.00;56.20;;;;;;4993799;27;95901;-68
2022/07/24 08:48:08;;;;;;;64.00;52.47;;;25.00;56.60;;;;;;4997842;27;96168;-68
2022/07/24 08:50:37;;;;;;;63.10;52.45;;;25.00;56.60;;;;;;4967607;27;95722;-67
2022/07/24 08:53:04;;;;;;;63.55;52.83;;;25.10;56.00;;;;;;5008104;27;95319;-66
2022/07/24 08:55:30;;;;;;;64.75;52.70;;;25.10;56.00;;;;;;4991582;27;100045;-68
2022/07/24 08:58:00;;;;;;;64.85;52.60;;;25.20;55.80;;;;;;5004198;27;96279;-66
2022/07/24 09:00:28;;;;;;;63.93;52.80;;;25.10;55.70;;;;;;5001761;27;95647;-67
2022/07/24 09:02:54;;;;;;;67.57;53.03;;;25.20;55.50;;;;;;4998006;27;95547;-67
2022/07/24 09:05:20;;;;;;;67.65;52.97;;;25.20;55.40;;;;;;4988838;27;97175;-67
2022/07/24 09:07:46;;;;;;;65.47;52.88;;;25.20;55.60;;;;;;4999062;27;100943;-68
2022/07/24 09:10:15;;;;;;;65.45;52.83;;;25.20;55.60;;;;;;4994062;27;96262;-68
2022/07/24 09:12:45;;;;;;;66.85;53.08;;;25.20;55.40;;;;;;4986082;27;96670;-70
2022/07/24 09:15:16;;;;;;;64.30;52.95;;;25.20;55.30;;;;;;4977869;27;94813;-69
2022/07/24 09:17:51;;;;;;;66.03;53.13;;;25.20;55.40;;;;;;4996755;27;95521;-69
2022/07/24 09:20:17;;;;;;;64.47;53.30;;;25.20;55.40;;;;;;4998529;27;96199;-68
2022/07/24 09:22:43;;;;;;;65.35;52.97;;;25.20;55.40;;;;;;4985774;27;96662;-68
2022/07/24 09:25:25;;;;;;;64.22;53.20;;;25.20;55.40;;;;;;4983087;27;100888;-69
2022/07/24 09:27:59;;;;;;;63.05;52.85;;;25.20;55.40;;;;;;4982834;27;96307;-68
2022/07/24 09:30:27;;;;;;;67.72;53.05;;;25.10;55.30;;;;;;4997169;27;95074;-68
2022/07/24 09:32:54;;;;;;;63.03;52.88;;;25.20;55.20;;;;;;4971809;27;106672;-68
2022/07/24 09:35:29;;;;;;;68.15;52.67;;;25.20;55.20;;;;;;5004061;27;94875;-68
2022/07/24 09:37:56;;;;;;;64.95;53.40;;;25.10;55.20;;;;;;4988215;27;96242;-69
2022/07/24 09:40:34;;;;;;;66.25;53.33;;;25.20;55.30;;;;;;4988599;27;98773;-70
2022/07/24 09:43:25;;;;;;;66.03;53.08;;;25.20;55.50;;;;;;4984501;27;96451;-69
2022/07/24 09:45:52;;;;;;;67.75;53.55;;;25.20;55.30;;;;;;4995076;27;95869;-69
2022/07/24 09:48:21;;;;;;;65.07;53.15;;;25.20;55.40;;;;;;5003723;27;99701;-69
2022/07/24 09:50:55;;;;;;;65.97;53.65;;;25.20;55.40;;;;;;4998605;27;95036;-69
2022/07/24 09:53:23;;;;;;;65.35;53.55;;;25.20;55.10;;;;;;5003014;27;94737;-69
2022/07/24 09:56:06;;;;;;;65.05;53.35;;;25.20;55.10;;;;;;4989182;27;101749;-69
2022/07/24 09:58:35;;;;;;;63.42;53.42;;;25.20;55.30;;;;;;4992934;27;96705;-69
2022/07/24 10:01:03;;;;;;;69.63;53.78;;;25.20;55.40;;;;;;4987926;27;95490;-69
2022/07/24 10:03:30;;;;;;;66.10;53.60;;;25.20;55.40;;;;;;4986567;27;95552;-69
2022/07/24 10:05:59;;;;;;;64.18;53.35;;;25.20;55.40;;;;;;4978187;27;95473;-69
2022/07/24 10:08:26;;;;;;;67.85;53.20;;;25.20;55.40;;;;;;4994357;27;96219;-69
2022/07/24 10:10:52;;;;;;;65.85;53.25;;;25.20;55.40;;;;;;4980444;27;96804;-69
2022/07/24 10:13:18;;;;;;;65.40;53.17;;;25.20;55.50;;;;;;4989420;27;96434;-69
2022/07/24 10:16:10;;;;;;;64.70;53.40;;;25.20;55.60;;;;;;4981517;27;98998;-69
2022/07/24 10:18:48;;;;;;;65.68;53.30;;;25.20;55.60;;;;;;4978713;27;101741;-69
2022/07/24 10:21:18;;;;;;;64.72;53.25;;;25.20;55.60;;;;;;4988180;27;96049;-69
2022/07/24 10:24:04;;;;;;;67.15;53.60;;;25.20;55.70;;;;;;4971734;27;95287;-68
2022/07/24 10:26:37;;;;;;;64.95;53.45;;;25.20;55.60;;;;;;4985931;27;97178;-69
2022/07/24 10:29:10;;;;;;;66.40;53.70;;;25.20;55.30;;;;;;4979250;27;96397;-69
2022/07/24 10:31:41;;;;;;;64.65;53.20;;;25.20;55.30;;;;;;4994645;27;99039;-70
2022/07/24 10:34:25;;;;;;;;;;;25.30;55.30;;;;;;4985547;27;95138;-70
2022/07/24 10:37:11;;;;;;;64.50;53.15;;;25.30;55.30;;;;;;4998342;27;94826;-69
2022/07/24 10:39:58;;;;;;;66.38;53.28;;;25.30;54.80;;;;;;4980718;27;99787;-69
2022/07/24 10:42:24;;;;;;;66.20;52.80;;;25.30;54.80;;;;;;4988584;27;99162;-69
2022/07/24 10:45:17;;;;;;;65.35;53.55;;;25.30;54.70;;;;;;4993543;27;96854;-69
2022/07/24 10:47:42;;;;;;;66.30;53.88;;;25.30;54.90;;;;;;4986073;27;95771;-69
2022/07/24 10:50:08;;;;;;;65.53;53.72;;;25.30;55.10;;;;;;5006318;27;96522;-70
2022/07/24 10:52:36;;;;;;;67.68;53.33;;;25.30;55.20;;;;;;4989658;27;95170;-69
2022/07/24 10:55:20;;;;;;;64.40;53.40;;;25.30;55.10;;;;;;4993135;27;96911;-69
2022/07/24 10:57:48;;;;;;;65.15;53.45;;;25.30;55.20;;;;;;4995597;27;96106;-69
2022/07/24 11:00:31;;;;;;;66.43;53.90;;;25.30;55.10;;;;;;5004734;27;95624;-68
2022/07/24 11:03:16;;;;;;;64.53;53.47;;;25.30;55.30;;;;;;5004956;27;94804;-69
2022/07/24 11:05:42;;;;;;;64.47;53.20;;;25.30;56.20;;;;;;5007292;27;96199;-69
2022/07/24 11:08:20;;;;;;;64.43;53.65;;;25.40;55.50;;;;;;4992224;27;96025;-70
2022/07/24 11:10:51;;;;;;;64.78;53.50;;;25.40;55.40;;;;;;4996381;27;96789;-70
2022/07/24 11:13:31;;;;;;;65.88;53.60;;;25.40;55.50;;;;;;4989433;27;97418;-70
2022/07/24 11:16:16;;;;;;;64.70;53.35;;;25.40;55.40;;;;;;4998179;27;95106;-68
2022/07/24 11:18:52;;;;;;;66.57;53.85;;;25.40;55.50;;;;;;5004813;27;95671;-69
2022/07/24 11:21:38;;;;;;;64.75;53.80;;;25.40;55.50;;;;;;5001418;27;97271;-69
2022/07/24 11:24:27;;;;;;;64.88;53.72;;;25.40;55.50;;;;;;5007500;27;94761;-69
2022/07/24 11:26:58;;;;;;;66.40;53.95;;;25.40;55.60;;;;;;5008631;27;95311;-69
2022/07/24 11:29:27;;;;;;;64.35;53.63;;;25.50;55.30;;;;;;4999510;27;96972;-69
2022/07/24 11:31:58;;;;;;;64.78;54.13;;;25.50;55.40;;;;;;4981792;27;104034;-69
2022/07/24 11:34:25;;;;;;;65.28;53.85;;;25.50;55.50;;;;;;4997036;27;95823;-70
2022/07/24 11:36:52;;;;;;;66.95;53.97;;;25.50;55.40;;;;;;4991077;27;95029;-69
2022/07/24 11:39:19;;;;;;;65.85;53.72;;;25.50;55.50;;;;;;5012889;27;94895;-69
2022/07/24 11:41:47;;;;;;;64.20;53.58;;;25.50;55.50;;;;;;5003114;27;96198;-69
2022/07/24 11:44:14;;;;;;;67.32;54.33;;;25.50;55.30;;;;;;4993223;27;97472;-69
2022/07/24 11:46:41;;;;;;;66.50;54.13;;;25.50;55.30;;;;;;4983455;27;95419;-68
2022/07/24 11:49:12;;;;;;;64.07;53.58;;;25.60;55.50;;;;;;4999420;27;95544;-69
2022/07/24 11:51:45;;;;;;;65.47;54.13;;;25.60;55.80;;;;;;4982930;27;96155;-68
2022/07/24 11:54:14;;;;;;;66.78;54.22;;;25.60;56.00;;;;;;4992138;27;98525;-69
2022/07/24 11:56:40;;;;;;;65.53;54.17;;;25.60;55.70;;;;;;4995014;27;96204;-68
2022/07/24 11:59:20;;;;;;;69.22;54.05;;;25.60;55.50;;;;;;4986940;27;95207;-69
2022/07/24 12:01:45;;;;;;;66.00;53.63;;;25.60;55.60;;;;;;4973368;27;101899;-68
2022/07/24 12:04:11;;;;;;;65.15;54.25;;;25.60;55.50;;;;;;4989448;27;95787;-69
2022/07/24 12:06:37;;;;;;;70.60;54.85;;;25.60;55.30;;;;;;4989945;27;97259;-68
2022/07/24 12:09:07;;;;;;;67.57;54.88;;;25.60;55.30;;;;;;4997083;27;105911;-68
2022/07/24 12:11:35;;;;;;;65.90;54.47;;;25.60;55.40;;;;;;4997015;27;95579;-68
2022/07/24 12:14:04;;;;;;;66.05;54.53;;;25.60;55.10;;;;;;4986917;27;96653;-68
2022/07/24 12:16:29;;;;;;;67.07;53.83;;;25.60;55.00;;;;;;4983678;27;97656;-68
2022/07/24 12:19:14;;;;;;;65.43;54.03;;;25.60;55.00;;;;;;4994887;27;95250;-69
2022/07/24 12:21:41;;;;;;;67.50;54.42;;;25.70;55.60;;;;;;5001085;27;97291;-67
2022/07/24 12:24:07;;;;;;;67.70;54.22;;;25.70;55.60;;;;;;5012728;27;97567;-68
2022/07/24 12:26:32;;;;;;;66.50;54.53;;;25.70;55.70;;;;;;4977937;27;98183;-67
2022/07/24 12:29:11;;;;;;;66.18;54.20;;;25.70;55.10;;;;;;4991434;27;96521;-68